Time;durP1;ratioP1;P1;durP2;ratioP2;P2;SDS_P1;SDS_P2;PMS_P1;PMS_P2;Temp;Humidity;BMP_temperature;BMP_pressure;BME280_temperature;BME280_humidity;BME280_pressure;Samples;Min_cycle;Max_cycle;Signal;HPM_P1;HPM_P2
2022/01/27 00:00:38;;;;;;;21.90;8.00;;;4.10;99.90;;;;;;4919863;29;20586;-54
2022/01/27 00:05:52;;;;;;;24.40;8.70;;;4.20;99.90;;;;;;4919816;29;20473;-56
2022/01/27 00:08:24;;;;;;;14.50;8.27;;;4.20;99.90;;;;;;4921019;29;20467;-51
2022/01/27 00:10:53;;;;;;;27.23;10.10;;;4.20;99.90;;;;;;4922010;29;20471;-58
2022/01/27 00:13:29;;;;;;;15.90;6.70;;;4.10;99.90;;;;;;4921973;29;20451;-57
2022/01/27 00:16:00;;;;;;;11.37;5.30;;;4.10;99.90;;;;;;4922194;29;20435;-52
2022/01/27 00:18:30;;;;;;;15.07;6.87;;;4.10;99.90;;;;;;4921469;29;20446;-49
2022/01/27 00:20:57;;;;;;;17.57;7.10;;;4.00;99.90;;;;;;4921637;29;20435;-58
2022/01/27 00:23:24;;;;;;;11.37;5.87;;;4.10;99.90;;;;;;4922247;29;20522;-52
2022/01/27 00:25:51;;;;;;;19.17;6.90;;;4.00;99.90;;;;;;4921543;29;20471;-57
2022/01/27 00:28:18;;;;;;;6.70;4.13;;;4.00;99.90;;;;;;4921311;29;20443;-56
2022/01/27 00:30:44;;;;;;;29.03;8.37;;;4.00;99.90;;;;;;4921438;29;20465;-52
2022/01/27 00:33:14;;;;;;;25.57;7.97;;;4.00;99.90;;;;;;4920357;29;20451;-57
2022/01/27 00:35:41;;;;;;;9.13;4.97;;;4.00;99.90;;;;;;4920843;29;20471;-51
2022/01/27 00:38:07;;;;;;;18.97;7.27;;;4.10;99.90;;;;;;4920525;29;20455;-53
2022/01/27 00:40:34;;;;;;;8.40;4.53;;;4.00;99.90;;;;;;4921282;29;20519;-54
2022/01/27 00:43:03;;;;;;;16.40;7.40;;;4.00;99.90;;;;;;4921657;29;20439;-53
2022/01/27 00:45:32;;;;;;;14.63;6.73;;;4.00;99.90;;;;;;4920999;29;20462;-56
2022/01/27 00:48:01;;;;;;;10.50;4.17;;;4.00;99.90;;;;;;4920780;29;20475;-56
2022/01/27 00:50:31;;;;;;;12.73;5.83;;;4.00;99.90;;;;;;4921203;29;20466;-53
2022/01/27 00:53:00;;;;;;;21.07;6.53;;;4.00;99.90;;;;;;4921527;29;20538;-53
2022/01/27 00:55:30;;;;;;;18.37;7.10;;;4.00;99.90;;;;;;4921607;29;20574;-57
2022/01/27 00:58:10;;;;;;;15.70;5.93;;;4.00;99.90;;;;;;4921080;29;20451;-54
2022/01/27 01:00:42;;;;;;;31.70;3.80;;;4.00;99.90;;;;;;4920785;29;20554;-56
2022/01/27 01:03:13;;;;;;;10.93;6.50;;;4.00;99.90;;;;;;4921277;29;20439;-57
2022/01/27 01:06:03;;;;;;;23.53;6.53;;;4.00;99.90;;;;;;4920533;29;20542;-54
2022/01/27 01:09:27;;;;;;;12.80;7.00;;;4.00;99.90;;;;;;4920881;29;20449;-48
2022/01/27 01:14:32;;;;;;;15.77;6.00;;;4.00;99.90;;;;;;4920297;29;20419;-56
2022/01/27 01:17:06;;;;;;;11.27;4.87;;;4.00;99.90;;;;;;4920071;29;20450;-53
2022/01/27 01:19:44;;;;;;;18.23;6.03;;;4.00;99.90;;;;;;4920450;29;20790;-53
2022/01/27 01:30:49;;;;;;;10.23;5.43;;;4.10;99.90;;;;;;4862392;29;20453;-55
2022/01/27 01:33:22;;;;;;;14.40;5.43;;;4.10;99.90;;;;;;4861941;29;20450;-57
2022/01/27 01:35:50;;;;;;;19.27;7.30;;;4.20;99.90;;;;;;4895309;29;20458;-59
2022/01/27 01:38:25;;;;;;;19.93;6.30;;;4.20;99.90;;;;;;4919044;29;20462;-56
2022/01/27 01:40:53;;;;;;;12.17;6.13;;;4.20;99.90;;;;;;4918586;29;20494;-46
2022/01/27 01:43:21;;;;;;;20.83;6.37;;;4.20;99.90;;;;;;4918956;29;20474;-52
2022/01/27 01:45:49;;;;;;;18.33;8.00;;;4.30;99.90;;;;;;4919616;29;20447;-57
2022/01/27 01:48:16;;;;;;;14.00;7.33;;;4.20;99.90;;;;;;4919031;29;20491;-54
2022/01/27 01:50:43;;;;;;;14.33;6.53;;;4.30;99.90;;;;;;4918982;29;20447;-56
2022/01/27 01:53:10;;;;;;;10.13;5.17;;;4.30;99.90;;;;;;4918620;29;20455;-54
2022/01/27 01:55:40;;;;;;;17.37;8.00;;;4.40;99.90;;;;;;4918264;29;20451;-54
2022/01/27 01:58:07;;;;;;;18.27;6.27;;;4.30;99.90;;;;;;4918563;29;20471;-58
2022/01/27 02:00:34;;;;;;;14.43;7.10;;;4.30;99.90;;;;;;4918604;29;20514;-53
2022/01/27 02:03:01;;;;;;;13.67;5.03;;;4.30;99.90;;;;;;4918558;29;20459;-55
2022/01/27 02:05:33;;;;;;;10.97;5.03;;;4.30;99.90;;;;;;4917794;29;20443;-51
2022/01/27 02:08:26;;;;;;;12.73;6.70;;;4.40;99.90;;;;;;4918423;29;20897;-52
2022/01/27 02:19:15;;;;;;;13.80;4.30;;;4.40;99.90;;;;;;4916971;29;20976;-51
2022/01/27 02:21:48;;;;;;;5.83;4.63;;;4.40;99.90;;;;;;4917889;29;20424;-52
2022/01/27 02:24:16;;;;;;;13.90;7.10;;;4.40;99.90;;;;;;4917283;29;20502;-57
2022/01/27 02:26:44;;;;;;;7.63;5.03;;;4.40;99.90;;;;;;4916921;29;20487;-57
2022/01/27 02:29:11;;;;;;;12.87;5.50;;;4.50;99.90;;;;;;4918083;29;20451;-55
2022/01/27 02:31:38;;;;;;;14.63;6.80;;;4.40;99.90;;;;;;4917515;29;20478;-57
2022/01/27 02:34:05;;;;;;;15.13;7.33;;;4.40;99.90;;;;;;4917351;29;20491;-53
2022/01/27 02:36:33;;;;;;;12.13;4.83;;;4.40;99.90;;;;;;4917332;29;20484;-52
2022/01/27 02:39:04;;;;;;;17.63;7.10;;;4.50;99.90;;;;;;4917739;29;20486;-54
2022/01/27 02:41:36;;;;;;;5.93;3.87;;;4.50;99.90;;;;;;4918184;29;20451;-52
2022/01/27 02:44:04;;;;;;;10.93;4.70;;;4.40;99.90;;;;;;4917590;29;20447;-53
2022/01/27 02:46:35;;;;;;;12.77;5.77;;;4.40;99.90;;;;;;4916743;29;20508;-57
2022/01/27 02:49:02;;;;;;;13.50;4.43;;;4.50;99.90;;;;;;4917154;29;20475;-50
2022/01/27 02:51:29;;;;;;;6.43;3.60;;;4.50;99.90;;;;;;4918261;29;20459;-54
2022/01/27 02:53:56;;;;;;;6.27;4.03;;;4.40;99.90;;;;;;4917616;29;20559;-54
2022/01/27 02:56:26;;;;;;;11.30;4.80;;;4.40;99.90;;;;;;4917685;29;20483;-57
2022/01/27 02:58:53;;;;;;;7.00;4.20;;;4.40;99.90;;;;;;4917552;29;20479;-56
2022/01/27 03:01:21;;;;;;;12.93;6.30;;;4.40;99.90;;;;;;4917005;29;20490;-56
2022/01/27 03:03:47;;;;;;;10.10;4.97;;;4.50;99.90;;;;;;4917779;29;20483;-56
2022/01/27 03:06:14;;;;;;;5.93;4.57;;;4.40;99.90;;;;;;4917647;29;20435;-53
2022/01/27 03:08:41;;;;;;;7.57;4.73;;;4.40;99.90;;;;;;4917099;29;20519;-52
2022/01/27 03:11:14;;;;;;;6.63;4.67;;;4.50;99.90;;;;;;4916920;29;20486;-51
2022/01/27 03:13:42;;;;;;;8.83;4.67;;;4.50;99.90;;;;;;4916706;29;20511;-56
2022/01/27 03:16:10;;;;;;;18.80;5.90;;;4.50;99.90;;;;;;4917723;29;20744;-56
2022/01/27 03:18:37;;;;;;;7.03;4.40;;;4.50;99.90;;;;;;4916684;29;20447;-58
2022/01/27 03:21:04;;;;;;;7.07;4.83;;;4.50;99.90;;;;;;4916460;29;20471;-55
2022/01/27 03:23:33;;;;;;;8.40;5.53;;;4.50;99.90;;;;;;4916673;29;20455;-55
2022/01/27 03:26:00;;;;;;;9.77;5.73;;;4.50;99.90;;;;;;4916599;29;20506;-55
2022/01/27 03:28:28;;;;;;;10.27;4.53;;;4.60;99.90;;;;;;4916916;29;20511;-58
2022/01/27 03:30:56;;;;;;;19.50;5.40;;;4.60;99.90;;;;;;4916138;29;20551;-53
2022/01/27 03:33:23;;;;;;;8.57;4.93;;;4.60;99.90;;;;;;4916615;29;20446;-56
2022/01/27 03:35:49;;;;;;;10.70;5.63;;;4.60;99.90;;;;;;4916298;29;20506;-51
2022/01/27 03:38:16;;;;;;;13.90;6.60;;;4.50;99.90;;;;;;4916198;29;20482;-54
2022/01/27 03:40:43;;;;;;;10.53;5.53;;;4.60;99.90;;;;;;4916748;29;20530;-55
2022/01/27 03:43:11;;;;;;;9.30;6.30;;;4.50;99.90;;;;;;4917198;29;20470;-56
2022/01/27 03:45:38;;;;;;;7.53;4.50;;;4.50;99.90;;;;;;4917260;29;20416;-57
2022/01/27 03:48:07;;;;;;;8.63;7.30;;;4.50;99.90;;;;;;4917330;29;20458;-54
2022/01/27 03:50:34;;;;;;;8.53;5.13;;;4.50;99.90;;;;;;4917120;29;20464;-59
2022/01/27 03:53:01;;;;;;;10.73;5.23;;;4.50;99.90;;;;;;4917170;29;20483;-58
2022/01/27 03:55:28;;;;;;;7.80;5.47;;;4.50;99.90;;;;;;4916906;29;20482;-58
2022/01/27 03:57:54;;;;;;;10.73;5.77;;;4.50;99.90;;;;;;4916400;29;20451;-57
2022/01/27 04:00:21;;;;;;;9.17;4.77;;;4.60;99.90;;;;;;4916488;29;20478;-55
2022/01/27 04:03:01;;;;;;;5.97;4.33;;;4.60;99.90;;;;;;4914965;29;20479;-53
2022/01/27 04:05:34;;;;;;;11.97;4.27;;;4.60;99.90;;;;;;4916051;29;20451;-58
2022/01/27 04:08:01;;;;;;;5.47;3.10;;;4.60;99.90;;;;;;4919039;29;20585;-51
2022/01/27 04:10:28;;;;;;;9.53;4.70;;;4.60;99.90;;;;;;4920626;29;20471;-58
2022/01/27 04:12:54;;;;;;;11.37;3.57;;;4.60;99.90;;;;;;4920696;29;20531;-60
2022/01/27 04:15:21;;;;;;;5.67;3.63;;;4.60;99.90;;;;;;4920465;29;20462;-53
2022/01/27 04:17:49;;;;;;;6.33;4.43;;;4.60;99.90;;;;;;4920104;29;20458;-50
2022/01/27 04:20:16;;;;;;;7.93;4.70;;;4.60;99.90;;;;;;4920309;29;20486;-58
2022/01/27 04:22:44;;;;;;;10.87;6.00;;;4.60;99.90;;;;;;4920041;29;20616;-54
2022/01/27 04:25:13;;;;;;;13.33;4.80;;;4.60;99.90;;;;;;4919127;29;20463;-55
2022/01/27 04:27:43;;;;;;;11.17;6.70;;;4.60;99.90;;;;;;4920007;29;20451;-56
2022/01/27 04:30:15;;;;;;;8.53;4.70;;;4.60;99.90;;;;;;4919789;29;20487;-52
2022/01/27 04:32:46;;;;;;;9.33;4.60;;;4.60;99.90;;;;;;4919102;29;20487;-57
2022/01/27 04:35:16;;;;;;;8.07;3.93;;;4.70;99.90;;;;;;4918987;29;20474;-53
2022/01/27 04:37:56;;;;;;;4.80;3.60;;;4.60;99.90;;;;;;4919500;29;22193;-52
2022/01/27 04:40:30;;;;;;;5.10;3.00;;;4.70;99.90;;;;;;4920614;29;20487;-56
2022/01/27 04:43:07;;;;;;;8.43;5.00;;;4.60;99.90;;;;;;4920443;29;20475;-59
2022/01/27 04:45:42;;;;;;;6.73;3.73;;;4.70;99.90;;;;;;4920425;29;20462;-52
2022/01/27 04:48:12;;;;;;;6.20;3.57;;;4.70;99.90;;;;;;4920808;29;20422;-56
2022/01/27 04:50:39;;;;;;;2.90;1.87;;;4.70;99.90;;;;;;4920868;29;20474;-55
2022/01/27 04:53:12;;;;;;;4.23;2.03;;;4.60;99.90;;;;;;4920412;29;20459;-53
2022/01/27 04:55:39;;;;;;;4.60;3.33;;;4.70;99.90;;;;;;4920333;29;20442;-54
2022/01/27 04:58:14;;;;;;;9.80;4.77;;;4.70;99.90;;;;;;4920457;29;20443;-50
2022/01/27 05:00:41;;;;;;;7.00;3.87;;;4.70;99.90;;;;;;4919822;29;20485;-49
2022/01/27 05:03:18;;;;;;;4.63;3.10;;;4.70;99.90;;;;;;4920523;29;20538;-53
2022/01/27 05:05:44;;;;;;;4.30;2.80;;;4.70;99.90;;;;;;4920612;29;20443;-50
2022/01/27 05:08:17;;;;;;;5.90;4.07;;;4.70;99.90;;;;;;4920158;29;20458;-48
2022/01/27 05:10:53;;;;;;;4.90;2.63;;;4.70;99.90;;;;;;4920051;29;20451;-54
2022/01/27 05:13:22;;;;;;;6.40;3.90;;;4.70;99.90;;;;;;4919148;29;20431;-57
2022/01/27 05:15:49;;;;;;;4.07;2.83;;;4.70;99.90;;;;;;4918966;29;21055;-50
2022/01/27 05:18:16;;;;;;;5.83;3.10;;;4.70;99.90;;;;;;4918636;29;20490;-55
2022/01/27 05:20:43;;;;;;;4.93;3.53;;;4.70;99.90;;;;;;4918874;29;20487;-52
2022/01/27 05:23:12;;;;;;;7.80;4.70;;;4.80;99.90;;;;;;4918795;29;20467;-54
2022/01/27 05:25:39;;;;;;;3.50;2.20;;;4.80;99.90;;;;;;4918384;29;20450;-54
2022/01/27 05:28:07;;;;;;;4.77;3.50;;;4.80;99.90;;;;;;4919535;29;20474;-54
2022/01/27 05:30:34;;;;;;;7.60;5.40;;;4.80;99.90;;;;;;4919624;29;20447;-51
2022/01/27 05:33:01;;;;;;;8.00;3.90;;;4.80;99.90;;;;;;4919768;29;20486;-56
2022/01/27 05:35:31;;;;;;;5.73;3.83;;;4.70;99.90;;;;;;4919438;29;20451;-54
2022/01/27 05:38:01;;;;;;;7.80;2.80;;;4.70;99.90;;;;;;4919486;29;20451;-54
2022/01/27 05:40:29;;;;;;;7.50;3.27;;;4.70;99.90;;;;;;4918361;29;20494;-49
2022/01/27 05:42:58;;;;;;;6.40;3.10;;;4.70;99.90;;;;;;4919715;29;20466;-56
2022/01/27 05:45:25;;;;;;;3.20;2.53;;;4.70;99.90;;;;;;4919300;29;20568;-55
2022/01/27 05:47:52;;;;;;;6.10;3.40;;;4.70;99.90;;;;;;4919078;29;20435;-58
2022/01/27 05:50:20;;;;;;;7.93;3.17;;;4.70;99.90;;;;;;4919060;29;20447;-56
2022/01/27 05:52:49;;;;;;;9.37;4.50;;;4.70;99.90;;;;;;4918375;29;20495;-56
2022/01/27 05:55:18;;;;;;;5.33;3.53;;;4.70;99.90;;;;;;4917040;29;20472;-51
2022/01/27 05:57:46;;;;;;;4.60;3.10;;;4.80;99.90;;;;;;4916737;29;20471;-57
2022/01/27 06:00:15;;;;;;;5.60;4.60;;;4.80;99.90;;;;;;4917986;29;20482;-57
2022/01/27 06:02:42;;;;;;;5.20;4.07;;;4.80;99.90;;;;;;4918809;29;20455;-52
2022/01/27 06:05:16;;;;;;;3.87;3.23;;;4.80;99.90;;;;;;4918700;29;20471;-55
2022/01/27 06:07:43;;;;;;;6.07;3.67;;;4.80;99.90;;;;;;4917530;29;20991;-56
2022/01/27 06:10:11;;;;;;;12.60;4.60;;;4.80;99.90;;;;;;4917119;29;20471;-55
2022/01/27 06:12:47;;;;;;;6.50;4.23;;;4.80;99.90;;;;;;4916548;29;20462;-57
2022/01/27 06:15:14;;;;;;;7.93;4.53;;;4.80;99.90;;;;;;4917351;29;20481;-57
2022/01/27 06:17:41;;;;;;;3.80;3.17;;;4.80;99.90;;;;;;4917970;29;20439;-54
2022/01/27 06:20:08;;;;;;;8.77;4.70;;;4.80;99.90;;;;;;4917700;29;20447;-59
2022/01/27 06:22:35;;;;;;;11.33;5.33;;;4.70;99.90;;;;;;4918031;29;20451;-56
2022/01/27 06:25:05;;;;;;;3.60;3.07;;;4.70;99.90;;;;;;4918211;29;20451;-51
2022/01/27 06:27:39;;;;;;;9.13;4.57;;;4.70;99.90;;;;;;4918172;29;20475;-53
2022/01/27 06:30:10;;;;;;;8.37;4.67;;;4.70;99.90;;;;;;4918905;29;20441;-55
2022/01/27 06:32:37;;;;;;;4.87;3.80;;;4.60;99.90;;;;;;4918157;29;20523;-49
2022/01/27 06:35:07;;;;;;;7.00;4.27;;;4.60;99.90;;;;;;4918024;29;20514;-54
2022/01/27 06:37:36;;;;;;;12.07;6.90;;;4.60;99.90;;;;;;4918076;29;20598;-55
2022/01/27 06:40:04;;;;;;;9.13;4.20;;;4.60;99.90;;;;;;4918189;29;20467;-58
2022/01/27 06:42:30;;;;;;;3.27;2.63;;;4.60;99.90;;;;;;4917333;29;20471;-49
2022/01/27 06:44:57;;;;;;;9.60;4.57;;;4.60;99.90;;;;;;4917327;29;20451;-54
2022/01/27 06:47:25;;;;;;;11.27;6.63;;;4.70;99.90;;;;;;4917651;29;20487;-55
2022/01/27 06:49:54;;;;;;;8.83;4.43;;;4.70;99.90;;;;;;4917189;29;20451;-57
2022/01/27 06:52:23;;;;;;;8.80;6.03;;;4.70;99.90;;;;;;4916985;29;20471;-54
2022/01/27 06:54:50;;;;;;;7.60;5.10;;;4.60;99.90;;;;;;4917363;29;20462;-52
2022/01/27 06:57:17;;;;;;;8.87;6.40;;;4.70;99.90;;;;;;4917392;29;20446;-54
2022/01/27 06:59:46;;;;;;;10.03;5.23;;;4.60;99.90;;;;;;4917060;29;20435;-54
2022/01/27 07:02:13;;;;;;;6.27;3.07;;;4.60;99.90;;;;;;4916724;29;20490;-54
2022/01/27 07:04:41;;;;;;;11.03;6.93;;;4.60;99.90;;;;;;4916946;29;20484;-57
2022/01/27 07:07:08;;;;;;;11.00;5.40;;;4.60;99.90;;;;;;4917479;29;20461;-54
2022/01/27 07:09:34;;;;;;;9.90;5.83;;;4.60;99.90;;;;;;4917459;29;20454;-58
2022/01/27 07:12:01;;;;;;;11.20;6.30;;;4.60;99.90;;;;;;4917302;29;20447;-58
2022/01/27 07:14:30;;;;;;;14.43;6.70;;;4.60;99.90;;;;;;4916993;29;20546;-53
2022/01/27 07:16:57;;;;;;;9.37;6.17;;;4.60;99.90;;;;;;4917642;29;20528;-49
2022/01/27 07:19:24;;;;;;;11.73;7.23;;;4.60;99.90;;;;;;4910313;29;20482;-57
2022/01/27 07:21:54;;;;;;;11.97;7.37;;;4.60;99.90;;;;;;4907985;29;20491;-57
2022/01/27 07:24:21;;;;;;;14.33;6.70;;;4.70;99.90;;;;;;4907993;29;20478;-59
2022/01/27 07:26:48;;;;;;;19.37;9.87;;;4.70;99.90;;;;;;4908892;29;20609;-55
2022/01/27 07:29:15;;;;;;;10.50;5.63;;;4.70;99.90;;;;;;4909208;29;20490;-58
2022/01/27 07:31:41;;;;;;;15.57;8.40;;;4.60;99.90;;;;;;4909684;29;20757;-55
2022/01/27 07:34:08;;;;;;;18.13;8.70;;;4.60;99.90;;;;;;4910043;29;20482;-54
2022/01/27 07:36:35;;;;;;;13.83;5.50;;;4.50;99.90;;;;;;4909245;29;20450;-57
2022/01/27 07:39:04;;;;;;;19.37;8.13;;;4.60;99.90;;;;;;4908720;29;20797;-54
2022/01/27 07:41:30;;;;;;;21.47;9.07;;;4.60;99.90;;;;;;4910284;29;20501;-57
2022/01/27 07:43:57;;;;;;;11.03;5.40;;;4.60;99.90;;;;;;4910649;29;20451;-58
2022/01/27 07:46:24;;;;;;;16.80;9.60;;;4.60;99.90;;;;;;4905761;29;20450;-58
2022/01/27 07:48:50;;;;;;;21.40;8.00;;;4.60;99.90;;;;;;4912079;29;20451;-57
2022/01/27 07:51:17;;;;;;;12.20;7.80;;;4.60;99.90;;;;;;4911284;29;20500;-55
2022/01/27 07:53:44;;;;;;;18.17;7.83;;;4.70;99.90;;;;;;4900757;29;20459;-52
2022/01/27 07:56:12;;;;;;;15.53;8.40;;;4.70;99.90;;;;;;4891398;29;20531;-55
2022/01/27 07:58:42;;;;;;;18.47;9.10;;;4.60;99.90;;;;;;4904630;29;20451;-49
2022/01/27 08:01:09;;;;;;;21.47;9.90;;;4.60;99.90;;;;;;4912105;29;20583;-54
2022/01/27 08:03:36;;;;;;;21.40;10.50;;;4.60;99.90;;;;;;4898438;29;20539;-54
2022/01/27 08:06:03;;;;;;;10.97;5.53;;;4.60;99.90;;;;;;4906333;29;20495;-60
2022/01/27 08:08:30;;;;;;;21.13;6.13;;;4.60;99.90;;;;;;4892893;29;20451;-58
2022/01/27 08:10:57;;;;;;;42.50;11.10;;;4.60;99.90;;;;;;4893470;29;20511;-51
2022/01/27 08:13:25;;;;;;;15.40;8.43;;;4.60;99.90;;;;;;4904889;29;20459;-56
2022/01/27 08:15:52;;;;;;;14.13;5.83;;;4.50;99.90;;;;;;4902496;29;20479;-55
2022/01/27 08:18:19;;;;;;;13.20;9.93;;;4.50;99.90;;;;;;4901933;29;20486;-51
2022/01/27 08:20:47;;;;;;;8.77;4.60;;;4.50;99.90;;;;;;4895667;29;20538;-55
2022/01/27 08:23:16;;;;;;;14.50;8.10;;;4.60;99.90;;;;;;4896332;29;20535;-51
2022/01/27 08:25:48;;;;;;;21.70;10.20;;;4.60;99.90;;;;;;4895844;29;20499;-54
2022/01/27 08:28:22;;;;;;;11.87;6.60;;;4.60;99.90;;;;;;4894631;29;20859;-56
2022/01/27 08:30:52;;;;;;;13.67;8.20;;;4.70;99.90;;;;;;4895391;29;20893;-55
2022/01/27 08:33:20;;;;;;;11.80;5.70;;;4.70;99.90;;;;;;4895328;29;20471;-54
2022/01/27 08:35:47;;;;;;;18.03;11.20;;;4.70;99.90;;;;;;4895821;29;20543;-52
2022/01/27 08:38:14;;;;;;;17.57;7.93;;;4.60;99.90;;;;;;4895782;29;20871;-56
2022/01/27 08:40:41;;;;;;;17.17;8.50;;;4.70;99.90;;;;;;4894439;29;20548;-52
2022/01/27 08:43:09;;;;;;;17.07;10.07;;;4.70;99.90;;;;;;4895148;29;20482;-56
2022/01/27 08:45:38;;;;;;;18.43;8.77;;;4.70;99.90;;;;;;4896420;29;20466;-50
2022/01/27 08:48:09;;;;;;;21.30;9.27;;;4.70;99.90;;;;;;4894525;29;20460;-52
2022/01/27 08:50:36;;;;;;;14.27;8.63;;;4.70;99.90;;;;;;4895621;29;20473;-57
2022/01/27 08:53:03;;;;;;;17.80;8.33;;;4.70;99.90;;;;;;4895273;29;20486;-53
2022/01/27 08:55:30;;;;;;;21.13;10.20;;;4.70;99.90;;;;;;4895628;29;20469;-57
2022/01/27 08:57:57;;;;;;;24.83;9.33;;;4.70;99.90;;;;;;4895895;29;20526;-57
2022/01/27 09:00:23;;;;;;;14.33;6.87;;;4.70;99.90;;;;;;4895657;29;20478;-56
2022/01/27 09:02:52;;;;;;;14.50;8.10;;;4.70;99.90;;;;;;4897720;29;20517;-56
2022/01/27 09:05:20;;;;;;;9.67;5.00;;;4.70;99.90;;;;;;4901521;29;20455;-53
2022/01/27 09:07:50;;;;;;;23.27;7.50;;;4.80;99.90;;;;;;4896941;29;20472;-55
2022/01/27 09:10:17;;;;;;;15.33;7.97;;;4.80;99.90;;;;;;4897332;29;20552;-55
2022/01/27 09:12:44;;;;;;;11.60;6.20;;;4.80;99.90;;;;;;4898725;29;21032;-55
2022/01/27 09:15:11;;;;;;;13.97;6.83;;;4.80;99.90;;;;;;4899256;29;20456;-56
2022/01/27 09:17:40;;;;;;;14.20;6.47;;;4.80;99.90;;;;;;4898531;29;20476;-56
2022/01/27 09:20:09;;;;;;;8.97;6.27;;;4.80;99.90;;;;;;4898313;29;20514;-57
2022/01/27 09:22:37;;;;;;;20.00;7.87;;;4.90;99.90;;;;;;4899888;29;20512;-56
2022/01/27 09:25:12;;;;;;;13.00;7.40;;;4.80;99.90;;;;;;4899449;29;20470;-52
2022/01/27 09:27:42;;;;;;;11.77;4.80;;;4.80;99.90;;;;;;4899105;29;20521;-56
2022/01/27 09:30:10;;;;;;;10.87;6.70;;;4.80;99.90;;;;;;4900008;29;20447;-53
2022/01/27 09:32:37;;;;;;;13.30;5.40;;;4.70;99.90;;;;;;4899410;29;20487;-58
2022/01/27 09:35:04;;;;;;;20.63;8.00;;;4.70;99.90;;;;;;4897803;29;20512;-53
2022/01/27 09:37:38;;;;;;;13.63;6.57;;;4.70;99.90;;;;;;4899435;29;20472;-56
2022/01/27 09:40:08;;;;;;;13.73;6.63;;;4.70;99.90;;;;;;4899526;29;20483;-53
2022/01/27 09:42:37;;;;;;;12.23;5.60;;;4.60;99.90;;;;;;4899076;29;20476;-55
2022/01/27 09:45:07;;;;;;;15.60;8.00;;;4.60;99.90;;;;;;4899560;29;20455;-57
2022/01/27 09:47:36;;;;;;;13.33;6.00;;;4.60;99.90;;;;;;4898423;29;20586;-58
2022/01/27 09:50:19;;;;;;;13.40;5.97;;;4.60;99.90;;;;;;4899075;29;20466;-57
2022/01/27 09:52:46;;;;;;;12.30;6.93;;;4.60;99.90;;;;;;4904176;29;20504;-54
2022/01/27 09:55:14;;;;;;;12.07;6.17;;;4.60;99.90;;;;;;4907941;29;20444;-56
2022/01/27 09:57:45;;;;;;;8.60;4.67;;;4.60;99.90;;;;;;4906666;29;20476;-52
2022/01/27 10:00:14;;;;;;;15.37;8.57;;;4.60;99.90;;;;;;4918392;29;20451;-51
2022/01/27 10:03:00;;;;;;;10.93;7.10;;;4.60;99.90;;;;;;4917307;29;20543;-53
2022/01/27 10:05:27;;;;;;;10.87;5.67;;;4.60;99.90;;;;;;4918149;29;20447;-57
2022/01/27 10:08:01;;;;;;;10.97;6.33;;;4.50;99.90;;;;;;4917392;29;20485;-58
2022/01/27 10:10:34;;;;;;;8.40;3.67;;;4.50;99.90;;;;;;4918466;29;20441;-55
2022/01/27 10:13:03;;;;;;;17.90;4.90;;;4.40;99.90;;;;;;4919432;29;20442;-52
2022/01/27 10:15:36;;;;;;;16.77;6.77;;;4.40;99.90;;;;;;4900905;29;20563;-57
2022/01/27 10:18:11;;;;;;;10.70;6.17;;;4.40;99.90;;;;;;4898360;29;20448;-56
2022/01/27 10:20:40;;;;;;;9.60;5.70;;;4.40;99.90;;;;;;4898402;29;20788;-51
2022/01/27 10:23:12;;;;;;;8.10;6.03;;;4.40;99.90;;;;;;4897707;29;20476;-54
2022/01/27 10:25:48;;;;;;;13.70;7.60;;;4.40;99.90;;;;;;4898257;29;20462;-49
2022/01/27 10:28:40;;;;;;;12.70;6.70;;;4.40;99.90;;;;;;4899047;29;20450;-50
2022/01/27 10:31:08;;;;;;;11.97;6.13;;;4.40;99.90;;;;;;4898180;29;20492;-51
2022/01/27 10:33:51;;;;;;;13.83;7.30;;;4.40;99.90;;;;;;4898149;29;20483;-53
2022/01/27 10:36:20;;;;;;;22.30;6.70;;;4.30;99.90;;;;;;4912569;29;20451;-56
2022/01/27 10:38:49;;;;;;;12.83;5.87;;;4.30;99.90;;;;;;4910951;29;20543;-52
2022/01/27 10:41:17;;;;;;;10.80;7.20;;;4.30;99.90;;;;;;4907863;29;20515;-51
2022/01/27 10:43:47;;;;;;;13.50;7.57;;;4.30;99.90;;;;;;4905917;29;20495;-52
2022/01/27 10:46:21;;;;;;;11.57;5.77;;;4.30;99.90;;;;;;4906785;29;20482;-53
2022/01/27 10:48:53;;;;;;;9.50;4.50;;;4.30;99.90;;;;;;4907708;29;20450;-57
2022/01/27 10:51:25;;;;;;;17.03;7.93;;;4.40;99.90;;;;;;4904370;29;20479;-57
2022/01/27 10:53:57;;;;;;;11.23;6.67;;;4.40;99.90;;;;;;4907178;29;20572;-53
2022/01/27 10:56:27;;;;;;;17.03;6.20;;;4.40;99.90;;;;;;4907341;29;20447;-49
2022/01/27 10:58:56;;;;;;;12.70;6.70;;;4.40;99.90;;;;;;4907673;29;20446;-51
2022/01/27 11:01:26;;;;;;;12.03;5.43;;;4.40;99.90;;;;;;4904624;29;20459;-55
2022/01/27 11:03:54;;;;;;;13.00;6.70;;;4.40;99.90;;;;;;4906186;29;20500;-49
2022/01/27 11:06:25;;;;;;;14.40;6.30;;;4.30;99.90;;;;;;4907175;29;20451;-53
2022/01/27 11:08:54;;;;;;;14.67;5.87;;;4.40;99.90;;;;;;4906084;29;20455;-57
2022/01/27 11:11:23;;;;;;;12.60;6.33;;;4.40;99.90;;;;;;4907013;29;20457;-50
2022/01/27 11:13:53;;;;;;;20.90;8.00;;;4.40;99.90;;;;;;4908460;29;20515;-55
2022/01/27 11:16:27;;;;;;;14.20;8.00;;;4.40;99.90;;;;;;4909005;29;20796;-54
2022/01/27 11:19:00;;;;;;;10.00;5.67;;;4.40;99.90;;;;;;4914194;29;20458;-57
2022/01/27 11:21:33;;;;;;;13.73;5.93;;;4.40;99.90;;;;;;4910662;29;20511;-54
2022/01/27 11:24:08;;;;;;;15.10;5.40;;;4.50;99.90;;;;;;4911389;29;20483;-58
2022/01/27 11:26:40;;;;;;;10.17;5.27;;;4.50;99.90;;;;;;4911437;29;20461;-54
2022/01/27 11:29:11;;;;;;;11.77;6.27;;;4.50;99.90;;;;;;4910553;29;20451;-58
2022/01/27 11:31:58;;;;;;;20.33;7.47;;;4.60;99.90;;;;;;4911604;29;20472;-54
2022/01/27 11:34:44;;;;;;;10.93;5.73;;;4.60;99.90;;;;;;4914842;29;20501;-50
2022/01/27 11:37:12;;;;;;;7.73;4.37;;;4.60;99.90;;;;;;4906380;29;20471;-52
2022/01/27 11:39:48;;;;;;;11.60;5.33;;;4.60;99.90;;;;;;4905880;29;20536;-51
2022/01/27 11:42:43;;;;;;;9.73;4.73;;;4.50;99.90;;;;;;4910481;29;20485;-54
2022/01/27 11:45:30;;;;;;;9.50;4.03;;;4.50;99.90;;;;;;4893652;29;20466;-54
2022/01/27 11:48:02;;;;;;;7.40;4.00;;;4.50;99.90;;;;;;4910283;29;20475;-51
2022/01/27 11:50:34;;;;;;;16.30;8.03;;;4.50;99.90;;;;;;4909410;29;20443;-50
2022/01/27 11:53:03;;;;;;;14.07;5.27;;;4.50;99.90;;;;;;4910758;29;20571;-57
2022/01/27 11:55:44;;;;;;;17.93;5.23;;;4.50;99.90;;;;;;4910154;29;20455;-53
2022/01/27 11:58:19;;;;;;;9.50;5.00;;;4.50;99.90;;;;;;4908570;29;20478;-50
2022/01/27 12:01:10;;;;;;;9.17;4.17;;;4.60;99.90;;;;;;4908859;29;20459;-53
2022/01/27 12:03:38;;;;;;;5.23;4.20;;;4.50;99.90;;;;;;4909351;29;20510;-53
2022/01/27 12:06:20;;;;;;;5.57;3.23;;;4.60;99.90;;;;;;4910477;29;20466;-56
2022/01/27 12:08:47;;;;;;;12.90;6.97;;;4.50;99.90;;;;;;4910683;29;20455;-57
2022/01/27 12:11:52;;;;;;;8.30;4.40;;;4.50;99.90;;;;;;4909895;29;20471;-57
2022/01/27 12:14:23;;;;;;;11.30;5.00;;;4.60;99.90;;;;;;4909867;29;20461;-57
2022/01/27 12:17:22;;;;;;;11.60;4.50;;;4.60;99.90;;;;;;4911830;29;20489;-51
2022/01/27 12:19:51;;;;;;;25.87;5.73;;;4.50;99.90;;;;;;4909438;29;20447;-52
2022/01/27 12:22:18;;;;;;;5.80;3.73;;;4.50;99.90;;;;;;4910225;29;20527;-52
2022/01/27 12:24:54;;;;;;;12.87;7.53;;;4.60;99.90;;;;;;4909670;29;20507;-53
2022/01/27 12:27:21;;;;;;;12.23;4.83;;;4.60;99.90;;;;;;4909556;29;20478;-51
2022/01/27 12:29:50;;;;;;;14.80;6.10;;;4.60;99.90;;;;;;4909582;29;20479;-55
2022/01/27 12:32:23;;;;;;;15.30;7.40;;;4.60;99.90;;;;;;4909659;29;20475;-51
2022/01/27 12:34:51;;;;;;;10.60;5.73;;;4.60;99.90;;;;;;4908249;29;20454;-51
2022/01/27 12:37:20;;;;;;;14.63;5.70;;;4.60;99.90;;;;;;4908271;29;20456;-53
2022/01/27 12:39:52;;;;;;;8.63;5.83;;;4.70;99.90;;;;;;4908436;29;20486;-53
2022/01/27 12:42:19;;;;;;;43.73;7.63;;;4.70;99.90;;;;;;4907622;29;20548;-55
2022/01/27 12:44:59;;;;;;;9.47;5.93;;;4.70;99.90;;;;;;4905516;29;20519;-52
2022/01/27 12:47:28;;;;;;;16.43;4.07;;;4.80;99.90;;;;;;4909036;29;20506;-50
2022/01/27 12:50:03;;;;;;;12.90;5.47;;;4.70;99.90;;;;;;4908369;29;20519;-54
2022/01/27 12:52:33;;;;;;;12.10;5.83;;;4.80;99.90;;;;;;4906610;29;20447;-55
2022/01/27 12:55:00;;;;;;;8.50;6.10;;;4.70;99.90;;;;;;4907071;29;20476;-51
2022/01/27 12:57:28;;;;;;;12.50;6.10;;;4.70;99.90;;;;;;4907346;29;20787;-53
2022/01/27 12:59:57;;;;;;;13.33;5.13;;;4.70;99.90;;;;;;4908141;29;20474;-54
2022/01/27 13:02:27;;;;;;;13.17;4.67;;;4.80;99.90;;;;;;4907617;29;20453;-52
2022/01/27 13:04:55;;;;;;;14.20;4.70;;;4.80;99.90;;;;;;4906907;29;20443;-48
2022/01/27 13:07:23;;;;;;;8.17;5.77;;;4.80;99.90;;;;;;4908191;29;20467;-48
2022/01/27 13:09:59;;;;;;;15.13;5.00;;;4.90;99.90;;;;;;4908437;29;20467;-51
2022/01/27 13:12:31;;;;;;;14.87;5.63;;;4.90;99.90;;;;;;4908041;29;20479;-56
2022/01/27 13:15:06;;;;;;;12.53;5.43;;;4.90;99.90;;;;;;4908246;29;20491;-50
2022/01/27 13:17:41;;;;;;;8.20;4.60;;;4.80;99.90;;;;;;4907142;29;20475;-53
2022/01/27 13:20:16;;;;;;;8.63;5.13;;;4.80;99.90;;;;;;4908098;29;20523;-52
2022/01/27 13:22:48;;;;;;;12.27;6.33;;;4.90;99.90;;;;;;4907091;29;20482;-52
2022/01/27 13:25:15;;;;;;;8.97;5.23;;;4.90;99.90;;;;;;4906052;29;20486;-53
2022/01/27 13:27:43;;;;;;;8.97;6.63;;;4.90;99.90;;;;;;4905425;29;20462;-54